PWSweather.com
Personal Weather Stations
Station Observations
RODOLIVOS
Serres, Rodolivos SerresGR 62041

SerresRodolivos SerresGR 62041

Lat: 40.920725, Lon: 23.975814

Elevation: 1161

Station Type: Davis Vantage Vue

http://rodolivos-weather.gr/

High Low Average
Temperature 82.6°F28.1°C 58.7°F14.8°C 69.5°F20.8°C
Dew Point 60.3°F15.7°C 52.1°F11.2°C 56.5°F13.6°C
Winds 12.7 mph 20.4 kmh Calm Calm 2.0 mph S3.2 kmh S
Wind Gusts 19.6 mph31.5 kmh -- 4.0 mph6.4 kmh
Humidity 87% 40% 65%
Pressure 30.00 in1015.9 mb 29.90 in1012.5 mb -
Precipitation 0.13 in3.3 mm - -
Hour Temp Dew Point Humidity Winds Wind Gusts Pressure Precip Precip Rate Daily Precip Total
05:30 AM 58.7°F14.8°C 54.5°F12.5°C 86% Calm Calm 1.2 mph1.9 kmh 29.93 in1013.5 mb - 0.00 in0.0 mm 0.00 in0.0 mm
05:40 AM 59.0°F15.0°C 55.1°F12.8°C 87% 1.2 mph SE1.9 kmh SE 1.2 mph1.9 kmh 29.93 in1013.5 mb - 0.00 in0.0 mm 0.00 in0.0 mm
05:50 AM 59.8°F15.4°C 54.9°F12.7°C 84% Calm Calm -- 29.93 in1013.5 mb - 0.00 in0.0 mm 0.00 in0.0 mm
06:00 AM 60.9°F16.1°C 55.7°F13.2°C 83% 1.2 mph SSE1.9 kmh SSE 1.2 mph1.9 kmh 29.93 in1013.5 mb - 0.00 in0.0 mm 0.00 in0.0 mm
06:10 AM 61.7°F16.5°C 56.1°F13.4°C 82% Calm Calm 1.2 mph1.9 kmh 29.94 in1013.9 mb - 0.00 in0.0 mm 0.00 in0.0 mm
06:20 AM 62.0°F16.7°C 56.4°F13.6°C 82% 1.2 mph S1.9 kmh S 1.2 mph1.9 kmh 29.93 in1013.5 mb - 0.00 in0.0 mm 0.00 in0.0 mm
06:30 AM 62.3°F16.8°C 56.4°F13.6°C 81% Calm Calm 2.3 mph3.7 kmh 29.94 in1013.9 mb - 0.00 in0.0 mm 0.00 in0.0 mm
06:40 AM 63.3°F17.4°C 56.7°F13.7°C 79% Calm Calm 2.3 mph3.7 kmh 29.94 in1013.9 mb - 0.00 in0.0 mm 0.00 in0.0 mm
06:50 AM 63.9°F17.7°C 56.9°F13.8°C 78% 1.2 mph S1.9 kmh S 3.5 mph5.6 kmh 29.94 in1013.9 mb - 0.00 in0.0 mm 0.00 in0.0 mm
07:00 AM 64.4°F18.0°C 57.0°F13.9°C 77% 1.2 mph S1.9 kmh S 2.3 mph3.7 kmh 29.94 in1013.9 mb - 0.00 in0.0 mm 0.00 in0.0 mm
07:10 AM 64.7°F18.2°C 57.7°F14.3°C 78% 1.2 mph SE1.9 kmh SE 2.3 mph3.7 kmh 29.94 in1013.9 mb - 0.00 in0.0 mm 0.00 in0.0 mm
07:20 AM 65.2°F18.4°C 57.1°F13.9°C 75% 2.3 mph S3.7 kmh S 5.8 mph9.3 kmh 29.94 in1013.9 mb - 0.00 in0.0 mm 0.00 in0.0 mm
07:30 AM 65.5°F18.6°C 57.0°F13.9°C 74% 1.2 mph SSW1.9 kmh SSW 3.5 mph5.6 kmh 29.95 in1014.2 mb - 0.00 in0.0 mm 0.00 in0.0 mm
07:40 AM 65.8°F18.8°C 57.3°F14.1°C 74% 1.2 mph S1.9 kmh S 2.3 mph3.7 kmh 29.95 in1014.2 mb - 0.00 in0.0 mm 0.00 in0.0 mm
07:50 AM 66.9°F19.4°C 58.3°F14.6°C 74% 1.2 mph SE1.9 kmh SE 2.3 mph3.7 kmh 29.95 in1014.2 mb - 0.00 in0.0 mm 0.00 in0.0 mm
08:00 AM 68.0°F20.0°C 58.6°F14.8°C 72% 1.2 mph SW1.9 kmh SW 2.3 mph3.7 kmh 29.95 in1014.2 mb - 0.00 in0.0 mm 0.00 in0.0 mm
08:10 AM 68.9°F20.5°C 58.7°F14.8°C 70% Calm Calm 2.3 mph3.7 kmh 29.95 in1014.2 mb - 0.00 in0.0 mm 0.00 in0.0 mm
08:20 AM 70.4°F21.3°C 58.5°F14.7°C 66% 1.2 mph WNW1.9 kmh WNW 1.2 mph1.9 kmh 29.95 in1014.2 mb - 0.00 in0.0 mm 0.00 in0.0 mm
08:30 AM 71.9°F22.2°C 59.9°F15.5°C 66% 1.2 mph SW1.9 kmh SW 3.5 mph5.6 kmh 29.95 in1014.2 mb - 0.00 in0.0 mm 0.00 in0.0 mm
08:40 AM 72.6°F22.6°C 59.7°F15.4°C 64% 1.2 mph S1.9 kmh S 3.5 mph5.6 kmh 29.95 in1014.2 mb - 0.00 in0.0 mm 0.00 in0.0 mm
08:50 AM 73.7°F23.2°C 58.5°F14.7°C 59% Calm Calm -- 29.95 in1014.2 mb - 0.00 in0.0 mm 0.00 in0.0 mm
09:00 AM 73.6°F23.1°C 60.3°F15.7°C 63% Calm Calm -- 29.94 in1013.9 mb - 0.00 in0.0 mm 0.00 in0.0 mm
09:10 AM 74.5°F23.6°C 58.8°F14.9°C 58% 1.2 mph NW1.9 kmh NW 3.5 mph5.6 kmh 29.94 in1013.9 mb - 0.00 in0.0 mm 0.00 in0.0 mm
09:20 AM 75.1°F23.9°C 59.8°F15.4°C 59% 1.2 mph NNW1.9 kmh NNW 1.2 mph1.9 kmh 29.94 in1013.9 mb - 0.00 in0.0 mm 0.00 in0.0 mm
09:30 AM 75.3°F24.1°C 60.0°F15.6°C 59% 1.2 mph WNW1.9 kmh WNW 1.2 mph1.9 kmh 29.94 in1013.9 mb - 0.00 in0.0 mm 0.00 in0.0 mm
09:40 AM 75.9°F24.4°C 55.4°F13.0°C 49% 1.2 mph N1.9 kmh N 3.5 mph5.6 kmh 29.94 in1013.9 mb - 0.00 in0.0 mm 0.00 in0.0 mm
09:50 AM 76.2°F24.6°C 56.2°F13.4°C 50% 3.5 mph N5.6 kmh N 4.6 mph7.4 kmh 29.94 in1013.9 mb - 0.00 in0.0 mm 0.00 in0.0 mm
10:00 AM 76.1°F24.5°C 56.7°F13.7°C 51% 3.5 mph N5.6 kmh N 5.8 mph9.3 kmh 29.94 in1013.9 mb - 0.00 in0.0 mm 0.00 in0.0 mm
10:10 AM 76.9°F24.9°C 56.3°F13.5°C 49% 2.3 mph NNE3.7 kmh NNE 3.5 mph5.6 kmh 29.94 in1013.9 mb - 0.00 in0.0 mm 0.00 in0.0 mm
10:20 AM 77.9°F25.5°C 57.8°F14.3°C 50% 2.3 mph NNW3.7 kmh NNW 4.6 mph7.4 kmh 29.93 in1013.5 mb - 0.00 in0.0 mm 0.00 in0.0 mm
10:30 AM 78.3°F25.7°C 56.4°F13.6°C 47% 1.2 mph N1.9 kmh N 6.9 mph11.1 kmh 29.93 in1013.5 mb - 0.00 in0.0 mm 0.00 in0.0 mm
10:40 AM 78.4°F25.8°C 55.9°F13.3°C 46% 2.3 mph N3.7 kmh N 3.5 mph5.6 kmh 29.93 in1013.5 mb - 0.00 in0.0 mm 0.00 in0.0 mm
10:50 AM 79.0°F26.1°C 55.9°F13.3°C 45% 3.5 mph N5.6 kmh N 5.8 mph9.3 kmh 29.93 in1013.5 mb - 0.00 in0.0 mm 0.00 in0.0 mm
11:00 AM 78.1°F25.6°C 54.4°F12.4°C 44% 4.6 mph N7.4 kmh N 8.1 mph13.0 kmh 29.93 in1013.5 mb - 0.00 in0.0 mm 0.00 in0.0 mm
11:10 AM 77.4°F25.2°C 55.0°F12.8°C 46% Calm Calm -- 29.93 in1013.5 mb - 0.00 in0.0 mm 0.00 in0.0 mm
11:20 AM 79.1°F26.2°C 57.1°F13.9°C 47% 1.2 mph N1.9 kmh N 1.2 mph1.9 kmh 29.92 in1013.2 mb - 0.00 in0.0 mm 0.00 in0.0 mm
11:30 AM 80.8°F27.1°C 56.9°F13.8°C 44% 2.3 mph N3.7 kmh N 3.5 mph5.6 kmh 29.92 in1013.2 mb - 0.00 in0.0 mm 0.00 in0.0 mm
11:40 AM 80.8°F27.1°C 56.2°F13.4°C 43% 3.5 mph N5.6 kmh N 10.4 mph16.7 kmh 29.92 in1013.2 mb - 0.00 in0.0 mm 0.00 in0.0 mm
11:50 AM 80.4°F26.9°C 55.2°F12.9°C 42% 2.3 mph NNW3.7 kmh NNW 10.4 mph16.7 kmh 29.92 in1013.2 mb - 0.00 in0.0 mm 0.00 in0.0 mm
12:00 PM 80.7°F27.1°C 56.8°F13.8°C 44% 1.2 mph NNW1.9 kmh NNW 8.1 mph13.0 kmh 29.92 in1013.2 mb - 0.00 in0.0 mm 0.00 in0.0 mm
12:10 PM 80.9°F27.2°C 55.0°F12.8°C 41% 6.9 mph N11.1 kmh N 11.5 mph18.5 kmh 29.92 in1013.2 mb - 0.00 in0.0 mm 0.00 in0.0 mm
12:20 PM 81.6°F27.6°C 56.2°F13.4°C 42% 4.6 mph N7.4 kmh N 5.8 mph9.3 kmh 29.92 in1013.2 mb - 0.00 in0.0 mm 0.00 in0.0 mm
12:30 PM 81.4°F27.4°C 54.7°F12.6°C 40% 6.9 mph NNW11.1 kmh NNW 10.4 mph16.7 kmh 29.91 in1012.9 mb - 0.00 in0.0 mm 0.00 in0.0 mm
12:40 PM 80.8°F27.1°C 54.9°F12.7°C 41% 4.6 mph N7.4 kmh N 8.1 mph13.0 kmh 29.91 in1012.9 mb - 0.00 in0.0 mm 0.00 in0.0 mm
12:50 PM 82.6°F28.1°C 55.8°F13.2°C 40% 5.8 mph N9.3 kmh N 9.2 mph14.8 kmh 29.91 in1012.9 mb - 0.00 in0.0 mm 0.00 in0.0 mm
01:00 PM 81.7°F27.6°C 55.0°F12.8°C 40% 2.3 mph N3.7 kmh N 5.8 mph9.3 kmh 29.91 in1012.9 mb - 0.00 in0.0 mm 0.00 in0.0 mm
01:10 PM 82.4°F28.0°C 55.7°F13.2°C 40% 3.5 mph NNE5.6 kmh NNE 6.9 mph11.1 kmh 29.91 in1012.9 mb - 0.00 in0.0 mm 0.00 in0.0 mm
01:20 PM 78.3°F25.7°C 56.4°F13.6°C 47% 4.6 mph ESE7.4 kmh ESE 5.8 mph9.3 kmh 29.90 in1012.5 mb - 0.00 in0.0 mm 0.00 in0.0 mm
01:30 PM 72.8°F22.7°C 57.1°F13.9°C 58% 12.7 mph N20.4 kmh N 18.4 mph29.6 kmh 29.93 in1013.5 mb - 0.00 in0.0 mm 0.00 in0.0 mm
01:40 PM 70.4°F21.3°C 54.9°F12.7°C 58% 12.7 mph NE20.4 kmh NE 19.6 mph31.5 kmh 29.95 in1014.2 mb - 0.00 in0.0 mm 0.00 in0.0 mm
01:50 PM 66.5°F19.2°C 54.4°F12.4°C 65% 5.8 mph E9.3 kmh E 12.7 mph20.4 kmh 29.97 in1014.9 mb - 0.03 in0.8 mm 0.03 in0.8 mm
02:00 PM 64.1°F17.8°C 55.3°F12.9°C 73% 3.5 mph E5.6 kmh E 5.8 mph9.3 kmh 29.96 in1014.6 mb - 0.02 in0.5 mm 0.05 in1.3 mm
02:10 PM 64.5°F18.1°C 54.1°F12.3°C 69% 8.1 mph ENE13.0 kmh ENE 12.7 mph20.4 kmh 29.95 in1014.2 mb - 0.02 in0.5 mm 0.06 in1.5 mm
02:20 PM 64.0°F17.8°C 55.5°F13.1°C 74% 5.8 mph E9.3 kmh E 8.1 mph13.0 kmh 29.95 in1014.2 mb - 0.03 in0.8 mm 0.09 in2.3 mm
02:30 PM 63.9°F17.7°C 55.8°F13.2°C 75% 2.3 mph E3.7 kmh E 6.9 mph11.1 kmh 29.96 in1014.6 mb - 0.02 in0.5 mm 0.11 in2.8 mm
02:40 PM 63.6°F17.6°C 55.6°F13.1°C 75% 4.6 mph E7.4 kmh E 6.9 mph11.1 kmh 29.95 in1014.2 mb - 0.02 in0.5 mm 0.12 in3.0 mm
02:50 PM 63.8°F17.7°C 55.4°F13.0°C 74% 4.6 mph E7.4 kmh E 6.9 mph11.1 kmh 29.93 in1013.5 mb - 0.00 in0.0 mm 0.12 in3.0 mm
03:00 PM 64.0°F17.8°C 55.9°F13.3°C 75% Calm Calm -- 29.92 in1013.2 mb - 0.01 in0.3 mm 0.13 in3.3 mm
03:10 PM 63.2°F17.3°C 57.2°F14.0°C 81% Calm Calm 2.3 mph3.7 kmh 29.94 in1013.9 mb - 0.01 in0.3 mm 0.13 in3.3 mm
03:20 PM 63.5°F17.5°C 57.2°F14.0°C 80% 1.2 mph E1.9 kmh E 1.2 mph1.9 kmh 29.93 in1013.5 mb - 0.00 in0.0 mm 0.13 in3.3 mm
03:30 PM 63.9°F17.7°C 57.9°F14.4°C 81% 1.2 mph NNE1.9 kmh NNE 1.2 mph1.9 kmh 29.93 in1013.5 mb - 0.00 in0.0 mm 0.13 in3.3 mm
03:40 PM 64.5°F18.1°C 59.6°F15.3°C 84% 1.2 mph N1.9 kmh N 2.3 mph3.7 kmh 29.94 in1013.9 mb - 0.00 in0.0 mm 0.13 in3.3 mm
03:50 PM 63.5°F17.5°C 57.6°F14.2°C 81% Calm Calm -- 29.93 in1013.5 mb - 0.00 in0.0 mm 0.13 in3.3 mm
04:00 PM 63.9°F17.7°C 56.5°F13.6°C 77% Calm Calm -- 29.93 in1013.5 mb - 0.00 in0.0 mm 0.13 in3.3 mm
04:10 PM 64.4°F18.0°C 56.3°F13.5°C 75% Calm Calm 1.2 mph1.9 kmh 29.93 in1013.5 mb - 0.00 in0.0 mm 0.13 in3.3 mm
04:20 PM 65.0°F18.3°C 57.2°F14.0°C 76% Calm Calm -- 29.92 in1013.2 mb - 0.00 in0.0 mm 0.13 in3.3 mm
04:30 PM 65.5°F18.6°C 57.7°F14.3°C 76% Calm Calm -- 29.92 in1013.2 mb - 0.00 in0.0 mm 0.13 in3.3 mm
04:40 PM 66.5°F19.2°C 58.4°F14.7°C 75% Calm Calm -- 29.92 in1013.2 mb - 0.00 in0.0 mm 0.13 in3.3 mm
04:50 PM 67.4°F19.7°C 58.8°F14.9°C 74% Calm Calm -- 29.92 in1013.2 mb - 0.00 in0.0 mm 0.13 in3.3 mm
05:00 PM 67.8°F19.9°C 58.1°F14.5°C 71% Calm Calm 1.2 mph1.9 kmh 29.93 in1013.5 mb - 0.00 in0.0 mm 0.13 in3.3 mm
05:10 PM 67.8°F19.9°C 57.2°F14.0°C 69% Calm Calm 2.3 mph3.7 kmh 29.93 in1013.5 mb - 0.00 in0.0 mm 0.13 in3.3 mm
05:20 PM 68.4°F20.2°C 57.4°F14.1°C 68% Calm Calm 4.6 mph7.4 kmh 29.94 in1013.9 mb - 0.00 in0.0 mm 0.13 in3.3 mm
05:30 PM 67.7°F19.8°C 58.3°F14.6°C 72% Calm Calm 1.2 mph1.9 kmh 29.94 in1013.9 mb - 0.00 in0.0 mm 0.13 in3.3 mm
05:40 PM 68.3°F20.2°C 57.3°F14.1°C 68% Calm Calm -- 29.95 in1014.2 mb - 0.00 in0.0 mm 0.13 in3.3 mm
05:50 PM 68.1°F20.1°C 58.3°F14.6°C 71% 1.2 mph NE1.9 kmh NE 2.3 mph3.7 kmh 29.96 in1014.6 mb - 0.00 in0.0 mm 0.13 in3.3 mm
06:00 PM 67.9°F19.9°C 58.6°F14.8°C 72% 1.2 mph N1.9 kmh N 5.8 mph9.3 kmh 29.96 in1014.6 mb - 0.00 in0.0 mm 0.13 in3.3 mm
06:10 PM 67.1°F19.5°C 58.5°F14.7°C 74% Calm Calm -- 29.95 in1014.2 mb - 0.00 in0.0 mm 0.13 in3.3 mm
06:20 PM 67.2°F19.6°C 59.0°F15.0°C 75% Calm Calm 1.2 mph1.9 kmh 29.95 in1014.2 mb - 0.00 in0.0 mm 0.13 in3.3 mm
06:30 PM 66.9°F19.4°C 59.1°F15.1°C 76% 1.2 mph N1.9 kmh N 3.5 mph5.6 kmh 29.95 in1014.2 mb - 0.00 in0.0 mm 0.13 in3.3 mm
06:40 PM 66.5°F19.2°C 58.0°F14.4°C 74% 2.3 mph NNE3.7 kmh NNE 2.3 mph3.7 kmh 29.95 in1014.2 mb - 0.00 in0.0 mm 0.13 in3.3 mm
06:50 PM 66.2°F19.0°C 58.0°F14.4°C 75% 2.3 mph N3.7 kmh N 4.6 mph7.4 kmh 29.96 in1014.6 mb - 0.00 in0.0 mm 0.13 in3.3 mm
07:00 PM 66.0°F18.9°C 58.5°F14.7°C 77% Calm Calm 1.2 mph1.9 kmh 29.96 in1014.6 mb - 0.00 in0.0 mm 0.13 in3.3 mm
07:10 PM 65.7°F18.7°C 58.7°F14.8°C 78% 1.2 mph ENE1.9 kmh ENE 2.3 mph3.7 kmh 29.95 in1014.2 mb - 0.00 in0.0 mm 0.13 in3.3 mm
07:20 PM 66.1°F18.9°C 57.2°F14.0°C 73% 1.2 mph NE1.9 kmh NE 2.3 mph3.7 kmh 29.95 in1014.2 mb - 0.00 in0.0 mm 0.13 in3.3 mm
07:30 PM 67.3°F19.6°C 54.7°F12.6°C 64% 3.5 mph NE5.6 kmh NE 4.6 mph7.4 kmh 29.96 in1014.6 mb - 0.00 in0.0 mm 0.13 in3.3 mm
07:40 PM 66.3°F19.1°C 57.0°F13.9°C 72% Calm Calm 2.3 mph3.7 kmh 29.97 in1014.9 mb - 0.00 in0.0 mm 0.13 in3.3 mm
07:50 PM 65.2°F18.4°C 57.9°F14.4°C 77% 1.2 mph NE1.9 kmh NE 1.2 mph1.9 kmh 29.97 in1014.9 mb - 0.00 in0.0 mm 0.13 in3.3 mm
08:50 PM 67.6°F19.8°C 55.4°F13.0°C 65% 9.2 mph N14.8 kmh N 18.4 mph29.6 kmh 29.99 in1015.6 mb - 0.00 in0.0 mm 0.13 in3.3 mm
09:00 PM 67.3°F19.6°C 54.3°F12.4°C 63% 5.8 mph NNE9.3 kmh NNE 10.4 mph16.7 kmh 29.99 in1015.6 mb - 0.00 in0.0 mm 0.13 in3.3 mm
09:10 PM 67.3°F19.6°C 53.8°F12.1°C 62% 4.6 mph NE7.4 kmh NE 8.1 mph13.0 kmh 29.99 in1015.6 mb - 0.00 in0.0 mm 0.13 in3.3 mm
09:20 PM 67.5°F19.7°C 53.1°F11.7°C 60% 3.5 mph NNE5.6 kmh NNE 8.1 mph13.0 kmh 30.00 in1015.9 mb - 0.00 in0.0 mm 0.13 in3.3 mm
09:30 PM 68.4°F20.2°C 52.1°F11.2°C 56% 3.5 mph NE5.6 kmh NE 8.1 mph13.0 kmh 30.00 in1015.9 mb - 0.00 in0.0 mm 0.13 in3.3 mm
09:40 PM 68.4°F20.2°C 52.5°F11.4°C 57% 1.2 mph NNW1.9 kmh NNW 2.3 mph3.7 kmh 30.00 in1015.9 mb - 0.00 in0.0 mm 0.13 in3.3 mm
09:50 PM 68.0°F20.0°C 52.2°F11.2°C 57% 3.5 mph ENE5.6 kmh ENE 6.9 mph11.1 kmh 30.00 in1015.9 mb - 0.00 in0.0 mm 0.13 in3.3 mm
10:00 PM 68.0°F20.0°C 52.2°F11.2°C 57% 3.5 mph ENE5.6 kmh ENE 4.6 mph7.4 kmh 29.99 in1015.6 mb - 0.00 in0.0 mm 0.13 in3.3 mm
10:10 PM 67.2°F19.6°C 52.8°F11.6°C 60% Calm Calm 3.5 mph5.6 kmh 29.99 in1015.6 mb - 0.00 in0.0 mm 0.13 in3.3 mm
10:20 PM 66.6°F19.2°C 53.2°F11.8°C 62% 2.3 mph NE3.7 kmh NE 4.6 mph7.4 kmh 30.00 in1015.9 mb - 0.00 in0.0 mm 0.13 in3.3 mm
10:30 PM 66.6°F19.2°C 52.7°F11.5°C 61% 4.6 mph NE7.4 kmh NE 6.9 mph11.1 kmh 29.99 in1015.6 mb - 0.00 in0.0 mm 0.13 in3.3 mm